createdAt,value
2023-02-23T00:00:28.796Z,25.80
2023-02-23T00:05:37.878Z,10.38
2023-02-23T00:10:41.257Z,8.05
2023-02-23T00:15:44.536Z,7.35
2023-02-23T00:20:57.844Z,6.47
2023-02-23T00:26:05.431Z,5.28
2023-02-23T00:31:08.951Z,6.47
2023-02-23T00:36:15.912Z,5.25
2023-02-23T00:41:20.846Z,4.40
2023-02-23T00:46:28.230Z,4.80
2023-02-23T00:51:33.061Z,5.88
2023-02-23T00:56:36.531Z,5.63
2023-02-23T01:01:41.922Z,6.82
2023-02-23T01:06:46.694Z,7.95
2023-02-23T01:11:50.005Z,8.52
2023-02-23T01:16:53.272Z,13.23
2023-02-23T01:21:57.951Z,11.35
2023-02-23T01:27:01.270Z,9.63
2023-02-23T01:32:05.525Z,7.88
2023-02-23T01:37:10.252Z,7.65
2023-02-23T01:42:14.790Z,6.67
2023-02-23T01:47:20.516Z,6.03
2023-02-23T01:52:25.304Z,5.17
2023-02-23T01:57:28.615Z,4.25
2023-02-23T02:02:34.113Z,4.33
2023-02-23T02:07:39.808Z,4.93
2023-02-23T02:12:46.318Z,4.95
2023-02-23T02:18:03.351Z,4.88
2023-02-23T02:23:44.364Z,4.90
2023-02-23T02:29:18.775Z,4.95
2023-02-23T02:34:59.632Z,4.75
2023-02-23T02:40:18.400Z,4.38
2023-02-23T02:45:28.299Z,5.23
2023-02-23T02:50:42.800Z,5.40
2023-02-23T02:55:49.296Z,5.00
2023-02-23T03:01:11.276Z,5.47
2023-02-23T03:06:33.516Z,5.20
2023-02-23T03:12:06.096Z,5.17
2023-02-23T03:17:38.426Z,5.50
2023-02-23T03:23:10.047Z,5.70
2023-02-23T03:28:36.694Z,6.13
2023-02-23T03:34:07.661Z,6.68
2023-02-23T03:39:36.836Z,7.13
2023-02-23T03:45:03.583Z,7.95
2023-02-23T03:50:28.077Z,7.22
2023-02-23T03:55:52.260Z,6.85
2023-02-23T04:01:18.120Z,7.35
2023-02-23T04:06:42.809Z,6.70
2023-02-23T04:12:09.500Z,6.63
2023-02-23T04:17:19.791Z,6.05
2023-02-23T04:22:24.586Z,7.28
2023-02-23T04:27:27.894Z,7.80
2023-02-23T04:32:32.797Z,5.85
2023-02-23T04:37:36.220Z,7.88
2023-02-23T04:42:40.393Z,8.82
2023-02-23T04:47:45.009Z,9.18
2023-02-23T04:52:48.831Z,8.43
2023-02-23T04:57:52.510Z,8.63
2023-02-23T05:02:57.161Z,10.80
2023-02-23T05:08:01.141Z,10.27
2023-02-23T05:13:04.616Z,8.00
2023-02-23T05:18:09.424Z,9.93
2023-02-23T05:23:12.922Z,9.57
2023-02-23T05:28:16.170Z,9.63
2023-02-23T05:33:21.936Z,8.70
2023-02-23T05:38:25.287Z,9.70
2023-02-23T05:43:28.805Z,9.77
2023-02-23T05:48:34.086Z,9.00
2023-02-23T05:53:38.069Z,9.70
2023-02-23T05:58:41.363Z,8.82
2023-02-23T06:03:46.564Z,9.35
2023-02-23T06:08:49.907Z,8.55
2023-02-23T06:13:53.400Z,8.45
2023-02-23T06:18:58.091Z,8.52
2023-02-23T06:24:01.629Z,8.88
2023-02-23T06:29:04.959Z,8.75
2023-02-23T06:34:10.306Z,8.13
2023-02-23T06:39:13.920Z,9.32
2023-02-23T06:44:17.194Z,10.25
2023-02-23T06:49:21.868Z,10.18
2023-02-23T06:54:26.556Z,10.55
2023-02-23T06:59:30.596Z,11.27
2023-02-23T07:04:35.244Z,12.23
2023-02-23T07:09:40.409Z,10.40
2023-02-23T07:14:43.617Z,11.65
2023-02-23T07:19:48.280Z,10.23
2023-02-23T07:24:51.518Z,12.43
2023-02-23T07:29:54.824Z,13.30
2023-02-23T07:34:59.754Z,14.43
2023-02-23T07:40:02.994Z,12.02
2023-02-23T07:45:07.584Z,11.05
2023-02-23T07:50:14.020Z,9.90
2023-02-23T07:55:17.260Z,9.38
2023-02-23T08:00:21.241Z,10.25
2023-02-23T08:05:26.616Z,10.07
2023-02-23T08:10:30.052Z,11.02
2023-02-23T08:15:33.286Z,11.68
2023-02-23T08:20:37.918Z,12.27
2023-02-23T08:25:41.247Z,12.20
2023-02-23T08:30:44.798Z,12.40
2023-02-23T08:35:49.487Z,11.77
2023-02-23T08:40:54.571Z,12.10
2023-02-23T08:45:57.827Z,11.45
2023-02-23T08:51:02.783Z,11.40
2023-02-23T08:56:08.290Z,11.65
2023-02-23T09:01:19.161Z,11.35
2023-02-23T09:06:26.450Z,11.85
2023-02-23T09:11:29.676Z,15.00
2023-02-23T09:16:33.491Z,14.25
2023-02-23T09:21:38.118Z,14.35
2023-02-23T09:26:45.634Z,14.40
2023-02-23T09:31:51.406Z,14.55
2023-02-23T09:36:56.514Z,15.27
2023-02-23T09:42:14.936Z,16.57
2023-02-23T09:47:33.495Z,16.60
2023-02-23T09:52:44.942Z,15.77
2023-02-23T09:57:49.881Z,15.37
2023-02-23T10:03:11.677Z,16.38
2023-02-23T10:08:25.220Z,15.10
2023-02-23T10:13:38.468Z,14.80
2023-02-23T10:18:47.807Z,18.13
2023-02-23T10:23:58.791Z,13.48
2023-02-23T10:29:02.079Z,13.05
2023-02-23T10:34:11.500Z,13.25
2023-02-23T10:39:16.157Z,12.60
2023-02-23T10:44:22.912Z,12.38
2023-02-23T10:49:31.711Z,18.30
2023-02-23T10:54:44.731Z,13.90
2023-02-23T11:00:02.794Z,13.20
2023-02-23T11:05:07.702Z,13.40
2023-02-23T11:10:27.815Z,15.88
2023-02-23T11:15:49.274Z,14.93
2023-02-23T11:20:54.715Z,14.60
2023-02-23T11:26:02.075Z,13.60
2023-02-23T11:31:15.588Z,15.75
2023-02-23T11:36:28.182Z,15.65
2023-02-23T11:41:35.345Z,14.43
2023-02-23T11:46:40.061Z,13.68
2023-02-23T11:51:49.818Z,13.13
2023-02-23T11:56:55.458Z,14.80
2023-02-23T12:02:06.056Z,15.73
2023-02-23T12:07:29.666Z,18.77
2023-02-23T12:12:49.407Z,18.75
2023-02-23T12:17:56.612Z,19.15
2023-02-23T12:23:03.931Z,19.25
2023-02-23T12:28:19.374Z,20.63
2023-02-23T12:33:30.242Z,20.08
2023-02-23T12:38:45.313Z,19.30
2023-02-23T12:43:55.103Z,20.10
2023-02-23T12:49:07.821Z,20.53
2023-02-23T12:54:13.841Z,19.83
2023-02-23T12:59:41.744Z,20.23
2023-02-23T13:05:04.985Z,22.05
2023-02-23T13:10:17.098Z,19.80
2023-02-23T13:15:28.836Z,20.58
2023-02-23T13:20:38.046Z,22.83
2023-02-23T13:25:49.323Z,22.30
2023-02-23T13:30:55.279Z,21.75
2023-02-23T13:35:59.830Z,21.85
2023-02-23T13:41:14.288Z,21.90
2023-02-23T13:46:29.708Z,21.42
2023-02-23T13:51:38.720Z,21.65
2023-02-23T13:56:46.070Z,21.77
2023-02-23T14:01:53.535Z,21.23
2023-02-23T14:07:02.141Z,22.13
2023-02-23T14:12:19.206Z,22.48
2023-02-23T14:17:44.291Z,21.93
2023-02-23T14:23:15.226Z,20.35
2023-02-23T14:28:27.570Z,20.10
2023-02-23T14:33:52.673Z,19.42
2023-02-23T14:39:01.687Z,19.85
2023-02-23T14:44:17.164Z,21.27
2023-02-23T14:49:32.588Z,19.87
2023-02-23T14:54:37.705Z,20.77
2023-02-23T14:59:42.763Z,21.03
2023-02-23T15:04:47.431Z,21.27
2023-02-23T15:09:52.210Z,19.77
2023-02-23T15:15:00.132Z,20.60
2023-02-23T15:20:16.552Z,20.85
2023-02-23T15:25:26.265Z,22.45
2023-02-23T15:30:31.795Z,23.52
2023-02-23T15:35:42.472Z,22.38
2023-02-23T15:40:46.394Z,24.42
2023-02-23T15:45:52.446Z,24.45
2023-02-23T15:50:59.127Z,23.07
2023-02-23T15:56:05.834Z,22.43
2023-02-23T16:01:13.149Z,23.42
2023-02-23T16:06:32.721Z,22.83
2023-02-23T16:11:37.834Z,21.60
2023-02-23T16:16:42.954Z,20.92
2023-02-23T16:21:53.914Z,22.53
2023-02-23T16:27:00.123Z,22.75
2023-02-23T16:32:04.849Z,23.17
2023-02-23T16:37:18.952Z,23.00
2023-02-23T16:42:31.496Z,21.98
2023-02-23T16:47:37.774Z,22.63
2023-02-23T16:52:42.813Z,32.47
2023-02-23T16:57:49.881Z,23.90
2023-02-23T17:02:53.272Z,23.27
2023-02-23T17:07:59.003Z,24.80
2023-02-23T17:13:05.123Z,23.03
2023-02-23T17:18:10.766Z,21.33
2023-02-23T17:23:15.524Z,21.00
2023-02-23T17:28:18.864Z,27.48
2023-02-23T17:33:22.126Z,30.40
2023-02-23T17:38:37.455Z,20.15
2023-02-23T17:43:41.050Z,12.10
2023-02-23T17:48:46.819Z,12.60
2023-02-23T17:53:51.480Z,14.55
2023-02-23T17:58:54.765Z,11.97
2023-02-23T18:03:58.667Z,10.13
2023-02-23T18:09:05.940Z,12.25
2023-02-23T18:14:09.614Z,10.85
2023-02-23T18:19:13.154Z,10.07
2023-02-23T18:24:18.008Z,17.93
2023-02-23T18:29:21.208Z,16.17
2023-02-23T18:34:25.414Z,20.85
2023-02-23T18:39:31.200Z,25.02
2023-02-23T18:44:35.349Z,24.73
2023-02-23T18:49:38.697Z,22.90
2023-02-23T18:54:43.274Z,22.38
2023-02-23T18:59:47.395Z,21.50
2023-02-23T19:04:50.678Z,25.63
2023-02-23T19:09:55.829Z,23.20
2023-02-23T19:14:59.186Z,21.90
2023-02-23T19:20:02.457Z,20.80
2023-02-23T19:25:11.743Z,23.27
2023-02-23T19:30:15.748Z,20.75
2023-02-23T19:35:21.129Z,15.90
2023-02-23T19:40:28.909Z,14.35
2023-02-23T19:45:34.326Z,17.83
2023-02-23T19:50:38.471Z,16.60
2023-02-23T19:55:49.587Z,17.77
2023-02-23T20:00:54.325Z,15.63
2023-02-23T20:05:58.660Z,12.10
2023-02-23T20:11:07.787Z,11.95
2023-02-23T20:16:14.278Z,7.90
2023-02-23T20:21:19.541Z,6.93
2023-02-23T20:26:26.946Z,6.70
2023-02-23T20:31:37.513Z,6.13
2023-02-23T20:36:41.187Z,6.20
2023-02-23T20:41:47.828Z,7.13
2023-02-23T20:46:51.424Z,9.75
2023-02-23T20:51:55.190Z,9.98
2023-02-23T20:57:07.718Z,10.93
2023-02-23T21:02:14.022Z,10.65
2023-02-23T21:07:17.804Z,11.02
2023-02-23T21:12:23.133Z,10.30
2023-02-23T21:17:26.391Z,9.45
2023-02-23T21:22:29.873Z,9.77
2023-02-23T21:27:34.529Z,9.45
2023-02-23T21:32:42.259Z,10.43
2023-02-23T21:37:46.306Z,9.35
2023-02-23T21:42:51.881Z,9.05
2023-02-23T21:47:55.274Z,8.65
2023-02-23T21:52:58.933Z,8.10
2023-02-23T21:58:03.675Z,8.23
2023-02-23T22:03:08.264Z,8.20
2023-02-23T22:08:15.898Z,7.20
2023-02-23T22:13:20.799Z,7.47
2023-02-23T22:18:25.320Z,6.97
2023-02-23T22:23:28.893Z,7.75
2023-02-23T22:28:35.461Z,8.52
2023-02-23T22:33:41.629Z,9.23
2023-02-23T22:38:45.616Z,8.15
2023-02-23T22:43:50.577Z,8.38
2023-02-23T22:48:53.892Z,7.43
2023-02-23T22:53:57.175Z,7.60
2023-02-23T22:59:06.400Z,7.38
2023-02-23T23:04:11.152Z,7.47
2023-02-23T23:09:16.533Z,6.80
2023-02-23T23:14:21.238Z,11.20
2023-02-23T23:19:25.319Z,12.32
2023-02-23T23:24:28.646Z,7.82
2023-02-23T23:29:33.294Z,10.83
2023-02-23T23:34:36.631Z,8.23
2023-02-23T23:39:40.082Z,8.30
2023-02-23T23:44:45.330Z,8.48
2023-02-23T23:49:48.605Z,10.15
2023-02-23T23:54:51.913Z,9.50
2023-02-23T23:59:56.542Z,9.98
